createdAt,value
2017-01-21T00:00:41.705Z,1028.16
2017-01-21T00:01:41.720Z,1028.17
2017-01-21T00:02:41.737Z,1028.22
2017-01-21T00:03:41.753Z,1028.17
2017-01-21T00:04:41.770Z,1028.17
2017-01-21T00:05:41.785Z,1028.14
2017-01-21T00:06:41.802Z,1028.11
2017-01-21T00:07:41.821Z,1028.12
2017-01-21T00:08:41.834Z,1028.13
2017-01-21T00:10:41.867Z,1028.1
2017-01-21T00:11:41.883Z,1028.05
2017-01-21T00:12:41.899Z,1028
2017-01-21T00:13:41.915Z,1028.02
2017-01-21T00:14:41.932Z,1028.01
2017-01-21T00:15:41.949Z,1028.06
2017-01-21T00:16:41.964Z,1028.06
2017-01-21T00:17:41.981Z,1028.08
2017-01-21T00:18:41.997Z,1028.14
2017-01-21T00:19:42.013Z,1028.2
2017-01-21T00:20:42.029Z,1028.19
2017-01-21T00:21:42.046Z,1028.2
2017-01-21T00:22:42.062Z,1028.14
2017-01-21T00:23:42.078Z,1028.16
2017-01-21T00:24:42.094Z,1028.14
2017-01-21T00:26:42.128Z,1028.11
2017-01-21T00:27:42.143Z,1028.13
2017-01-21T00:28:42.160Z,1028.18
2017-01-21T00:29:42.176Z,1028.16
2017-01-21T00:30:42.192Z,1028.19
2017-01-21T00:31:42.208Z,1028.23
2017-01-21T00:32:42.225Z,1028.27
2017-01-21T00:33:42.241Z,1028.24
2017-01-21T00:34:42.275Z,1028.23
2017-01-21T00:35:42.273Z,1028.25
2017-01-21T00:36:42.290Z,1028.27
2017-01-21T00:37:42.307Z,1028.28
2017-01-21T00:38:42.322Z,1028.27
2017-01-21T00:39:42.338Z,1028.27
2017-01-21T00:40:42.355Z,1028.27
2017-01-21T00:42:42.388Z,1028.25
2017-01-21T00:43:42.403Z,1028.19
2017-01-21T00:44:42.419Z,1028.12
2017-01-21T00:45:42.435Z,1028.19
2017-01-21T00:46:42.470Z,1028.19
2017-01-21T00:47:42.467Z,1028.24
2017-01-21T00:48:42.484Z,1028.25
2017-01-21T00:49:42.499Z,1028.25
2017-01-21T00:50:42.516Z,1028.25
2017-01-21T00:51:42.532Z,1028.29
2017-01-21T00:52:42.548Z,1028.23
2017-01-21T00:53:42.564Z,1028.24
2017-01-21T00:54:42.580Z,1028.23
2017-01-21T00:55:42.597Z,1028.18
2017-01-21T00:56:42.612Z,1028.17
2017-01-21T00:58:42.645Z,1028.24
2017-01-21T00:59:42.662Z,1028.22
2017-01-21T01:00:42.678Z,1028.18
2017-01-21T01:01:42.694Z,1028.18
2017-01-21T01:02:42.711Z,1028.17
2017-01-21T01:03:42.726Z,1028.19
2017-01-21T01:04:42.742Z,1028.22
2017-01-21T01:05:42.759Z,1028.17
2017-01-21T01:06:42.776Z,1028.22
2017-01-21T01:07:42.791Z,1028.22
2017-01-21T01:08:42.808Z,1028.22
2017-01-21T01:09:42.824Z,1028.21
2017-01-21T01:10:42.841Z,1028.21
2017-01-21T01:11:42.858Z,1028.25
2017-01-21T01:13:42.890Z,1028.24
2017-01-21T01:14:42.906Z,1028.25
2017-01-21T01:15:42.922Z,1028.28
2017-01-21T01:16:42.939Z,1028.28
2017-01-21T01:17:42.955Z,1028.28
2017-01-21T01:18:42.971Z,1028.28
2017-01-21T01:19:42.987Z,1028.3
2017-01-21T01:20:43.004Z,1028.3
2017-01-21T01:21:43.019Z,1028.26
2017-01-21T01:22:43.036Z,1028.29
2017-01-21T01:23:43.052Z,1028.31
2017-01-21T01:24:43.069Z,1028.32
2017-01-21T01:25:43.086Z,1028.28
2017-01-21T01:26:43.101Z,1028.3
2017-01-21T01:27:43.117Z,1028.34
2017-01-21T01:28:43.134Z,1028.33
2017-01-21T01:29:43.150Z,1028.32
2017-01-21T01:30:43.166Z,1028.33
2017-01-21T01:31:43.182Z,1028.31
2017-01-21T01:32:43.205Z,1028.31
2017-01-21T01:33:43.214Z,1028.32
2017-01-21T01:34:43.231Z,1028.3
2017-01-21T01:35:43.247Z,1028.31
2017-01-21T01:36:43.263Z,1028.29
2017-01-21T01:37:43.279Z,1028.29
2017-01-21T01:38:43.296Z,1028.31
2017-01-21T01:39:43.313Z,1028.31
2017-01-21T01:40:43.328Z,1028.34
2017-01-21T01:41:43.344Z,1028.35
2017-01-21T01:42:43.361Z,1028.34
2017-01-21T01:43:43.377Z,1028.27
2017-01-21T01:45:43.410Z,1028.28
2017-01-21T01:46:43.426Z,1028.24
2017-01-21T01:47:43.442Z,1028.24
2017-01-21T01:48:43.459Z,1028.22
2017-01-21T01:49:43.505Z,1028.2
2017-01-21T01:50:43.492Z,1028.19
2017-01-21T01:51:43.507Z,1028.18
2017-01-21T01:52:43.524Z,1028.15
2017-01-21T01:53:43.540Z,1028.18
2017-01-21T01:54:43.556Z,1028.16
2017-01-21T01:55:43.572Z,1028.13
2017-01-21T01:56:43.589Z,1028.12
2017-01-21T01:57:43.605Z,1028.18
2017-01-21T01:58:43.621Z,1028.14
2017-01-21T01:59:43.638Z,1028.14
2017-01-21T02:01:43.671Z,1028.1
2017-01-21T02:02:43.686Z,1028.12
2017-01-21T02:03:43.703Z,1028.08
2017-01-21T02:04:43.737Z,1028.1
2017-01-21T02:05:43.734Z,1028.1
2017-01-21T02:06:43.751Z,1028.06
2017-01-21T02:07:43.768Z,1028.11
2017-01-21T02:08:43.785Z,1028.1
2017-01-21T02:09:43.800Z,1028.11
2017-01-21T02:10:43.817Z,1028.14
2017-01-21T02:11:43.834Z,1028.19
2017-01-21T02:12:43.850Z,1028.14
2017-01-21T02:13:43.865Z,1028.14
2017-01-21T02:14:43.883Z,1028.11
2017-01-21T02:15:43.899Z,1028.13
2017-01-21T02:17:43.931Z,1028.04
2017-01-21T02:18:43.948Z,1028.03
2017-01-21T02:19:43.964Z,1028.01
2017-01-21T02:20:43.980Z,1027.97
2017-01-21T02:21:43.996Z,1027.95
2017-01-21T02:22:44.013Z,1027.95
2017-01-21T02:23:44.030Z,1027.97
2017-01-21T02:24:44.045Z,1027.98
2017-01-21T02:25:44.062Z,1027.97
2017-01-21T02:26:44.079Z,1027.95
2017-01-21T02:27:44.094Z,1027.96
2017-01-21T02:28:44.111Z,1027.92
2017-01-21T02:29:44.127Z,1027.94
2017-01-21T02:30:44.144Z,1027.93
2017-01-21T02:31:44.160Z,1027.91
2017-01-21T02:33:44.193Z,1027.9
2017-01-21T02:34:44.209Z,1027.87
2017-01-21T02:35:44.225Z,1027.9
2017-01-21T02:36:44.242Z,1027.86
2017-01-21T02:37:44.259Z,1027.83
2017-01-21T02:38:44.274Z,1027.84
2017-01-21T02:39:44.291Z,1027.82
2017-01-21T02:40:44.307Z,1027.83
2017-01-21T02:41:44.324Z,1027.78
2017-01-21T02:42:44.339Z,1027.76
2017-01-21T02:43:44.356Z,1027.77
2017-01-21T02:44:44.373Z,1027.78
2017-01-21T02:45:44.390Z,1027.78
2017-01-21T02:46:44.406Z,1027.84
2017-01-21T02:48:44.439Z,1027.8
2017-01-21T02:49:44.455Z,1027.74
2017-01-21T02:50:44.472Z,1027.72
2017-01-21T02:51:44.489Z,1027.71
2017-01-21T02:52:44.505Z,1027.71
2017-01-21T02:53:44.521Z,1027.64
2017-01-21T02:54:44.537Z,1027.67
2017-01-21T02:55:44.554Z,1027.62
2017-01-21T02:56:44.569Z,1027.58
2017-01-21T02:57:44.587Z,1027.56
2017-01-21T02:58:44.603Z,1027.5
2017-01-21T02:59:44.620Z,1027.53
2017-01-21T03:00:44.635Z,1027.52
2017-01-21T03:01:44.652Z,1027.53
2017-01-21T03:02:44.669Z,1027.52
2017-01-21T03:03:44.687Z,1027.53
2017-01-21T03:04:44.701Z,1027.53
2017-01-21T03:05:44.718Z,1027.5
2017-01-21T03:06:44.734Z,1027.51
2017-01-21T03:07:44.750Z,1027.53
2017-01-21T03:08:44.767Z,1027.48
2017-01-21T03:09:44.783Z,1027.55
2017-01-21T03:10:44.800Z,1027.5
2017-01-21T03:11:44.816Z,1027.47
2017-01-21T03:12:44.832Z,1027.44
2017-01-21T03:13:44.849Z,1027.44
2017-01-21T03:14:44.866Z,1027.43
2017-01-21T03:15:44.881Z,1027.4
2017-01-21T03:16:44.900Z,1027.44
2017-01-21T03:17:44.914Z,1027.42
2017-01-21T03:18:44.930Z,1027.39
2017-01-21T03:20:44.963Z,1027.34
2017-01-21T03:21:44.980Z,1027.34
2017-01-21T03:22:44.995Z,1027.36
2017-01-21T03:23:45.012Z,1027.39
2017-01-21T03:24:45.029Z,1027.37
2017-01-21T03:25:45.045Z,1027.38
2017-01-21T03:26:45.061Z,1027.43
2017-01-21T03:27:45.077Z,1027.39
2017-01-21T03:28:45.094Z,1027.45
2017-01-21T03:29:45.110Z,1027.45
2017-01-21T03:30:45.126Z,1027.48
2017-01-21T03:31:45.143Z,1027.45
2017-01-21T03:32:45.159Z,1027.44
2017-01-21T03:33:45.175Z,1027.37
2017-01-21T03:34:45.191Z,1027.34
2017-01-21T03:36:45.225Z,1027.36
2017-01-21T03:37:45.240Z,1027.37
2017-01-21T03:38:45.257Z,1027.36
2017-01-21T03:39:45.273Z,1027.42
2017-01-21T03:40:45.289Z,1027.43
2017-01-21T03:41:45.305Z,1027.42
2017-01-21T03:42:45.322Z,1027.4
2017-01-21T03:43:45.338Z,1027.32
2017-01-21T03:44:45.354Z,1027.32
2017-01-21T03:45:45.373Z,1027.31
2017-01-21T03:46:45.387Z,1027.33
2017-01-21T03:47:45.404Z,1027.33
2017-01-21T03:48:45.419Z,1027.37
2017-01-21T03:49:45.436Z,1027.34
2017-01-21T03:50:45.452Z,1027.32
2017-01-21T03:52:45.485Z,1027.44
2017-01-21T03:53:45.501Z,1027.45
2017-01-21T03:54:45.527Z,1027.46
2017-01-21T03:55:45.534Z,1027.46
2017-01-21T03:56:45.553Z,1027.44
2017-01-21T03:57:45.567Z,1027.43
2017-01-21T03:58:45.583Z,1027.41
2017-01-21T03:59:45.599Z,1027.4
2017-01-21T04:00:45.616Z,1027.41
2017-01-21T04:01:45.632Z,1027.44
2017-01-21T04:02:45.648Z,1027.43
2017-01-21T04:03:45.665Z,1027.5
2017-01-21T04:04:45.681Z,1027.51
2017-01-21T04:05:45.697Z,1027.49
2017-01-21T04:06:45.713Z,1027.52
2017-01-21T04:08:45.746Z,1027.47
2017-01-21T04:09:45.763Z,1027.43
2017-01-21T04:10:45.778Z,1027.41
2017-01-21T04:11:45.795Z,1027.42
2017-01-21T04:12:45.811Z,1027.43
2017-01-21T04:13:45.828Z,1027.39
2017-01-21T04:14:45.843Z,1027.44
2017-01-21T04:15:45.860Z,1027.44
2017-01-21T04:16:46.177Z,1027.44
2017-01-21T04:17:45.892Z,1027.49
2017-01-21T04:18:45.909Z,1027.5
2017-01-21T04:19:45.926Z,1027.48
2017-01-21T04:20:45.942Z,1027.52
2017-01-21T04:21:45.958Z,1027.52
2017-01-21T04:23:45.993Z,1027.53
2017-01-21T04:24:46.007Z,1027.47
2017-01-21T04:25:46.024Z,1027.48
2017-01-21T04:26:46.041Z,1027.46
2017-01-21T04:27:46.057Z,1027.45
2017-01-21T04:28:46.072Z,1027.52
2017-01-21T04:29:46.089Z,1027.5
2017-01-21T04:30:46.106Z,1027.51
2017-01-21T04:31:46.122Z,1027.49
2017-01-21T04:32:46.138Z,1027.47
2017-01-21T04:33:46.155Z,1027.51
2017-01-21T04:34:46.171Z,1027.47
2017-01-21T04:35:46.187Z,1027.45
2017-01-21T04:36:46.204Z,1027.42
2017-01-21T04:37:46.220Z,1027.39
2017-01-21T04:38:46.237Z,1027.39
2017-01-21T04:39:46.253Z,1027.4
2017-01-21T04:40:46.270Z,1027.46
2017-01-21T04:41:46.285Z,1027.43
2017-01-21T04:42:46.301Z,1027.4
2017-01-21T04:43:46.318Z,1027.4
2017-01-21T04:44:46.334Z,1027.43
2017-01-21T04:45:46.351Z,1027.43
2017-01-21T04:46:46.366Z,1027.45
2017-01-21T04:47:46.383Z,1027.41
2017-01-21T04:48:46.403Z,1027.46
2017-01-21T04:49:46.416Z,1027.45
2017-01-21T04:50:46.432Z,1027.48
2017-01-21T04:51:46.449Z,1027.42
2017-01-21T04:52:46.466Z,1027.42
2017-01-21T04:53:46.480Z,1027.39
2017-01-21T04:55:46.514Z,1027.38
2017-01-21T04:56:46.530Z,1027.41
2017-01-21T04:57:46.546Z,1027.47
2017-01-21T04:58:46.563Z,1027.49
2017-01-21T04:59:46.579Z,1027.45
2017-01-21T05:00:46.596Z,1027.53
2017-01-21T05:01:46.611Z,1027.51
2017-01-21T05:02:46.628Z,1027.5
2017-01-21T05:03:46.645Z,1027.58
2017-01-21T05:04:46.660Z,1027.55
2017-01-21T05:05:46.677Z,1027.54
2017-01-21T05:06:46.693Z,1027.52
2017-01-21T05:07:46.710Z,1027.53
2017-01-21T05:08:46.726Z,1027.52
2017-01-21T05:09:46.742Z,1027.5
2017-01-21T05:11:46.775Z,1027.52
2017-01-21T05:12:46.791Z,1027.5
2017-01-21T05:13:46.808Z,1027.49
2017-01-21T05:14:46.826Z,1027.52
2017-01-21T05:15:46.840Z,1027.53
2017-01-21T05:16:46.856Z,1027.56
2017-01-21T05:17:46.873Z,1027.58
2017-01-21T05:18:46.889Z,1027.62
2017-01-21T05:19:46.905Z,1027.59
2017-01-21T05:20:46.922Z,1027.63
2017-01-21T05:21:46.938Z,1027.61
2017-01-21T05:22:46.957Z,1027.58
2017-01-21T05:23:46.970Z,1027.58
2017-01-21T05:24:46.987Z,1027.57
2017-01-21T05:25:47.003Z,1027.55
2017-01-21T05:27:47.036Z,1027.48
2017-01-21T05:28:47.052Z,1027.56
2017-01-21T05:29:47.069Z,1027.49
2017-01-21T05:30:47.085Z,1027.56
2017-01-21T05:31:47.101Z,1027.59
2017-01-21T05:32:47.118Z,1027.55
2017-01-21T05:33:47.135Z,1027.59
2017-01-21T05:34:47.150Z,1027.59
2017-01-21T05:35:47.167Z,1027.6
2017-01-21T05:36:47.183Z,1027.63
2017-01-21T05:37:47.199Z,1027.61
2017-01-21T05:38:47.216Z,1027.59
2017-01-21T05:39:47.232Z,1027.58
2017-01-21T05:40:47.249Z,1027.62
2017-01-21T05:41:47.264Z,1027.62
2017-01-21T05:43:47.298Z,1027.61
2017-01-21T05:44:47.314Z,1027.6
2017-01-21T05:45:47.330Z,1027.63
2017-01-21T05:46:47.347Z,1027.67
2017-01-21T05:47:47.363Z,1027.69
2017-01-21T05:48:47.379Z,1027.67
2017-01-21T05:49:47.396Z,1027.73
2017-01-21T05:50:47.412Z,1027.7
2017-01-21T05:51:47.429Z,1027.67
2017-01-21T05:52:47.444Z,1027.73
2017-01-21T05:53:47.462Z,1027.69
2017-01-21T05:54:47.478Z,1027.71
2017-01-21T05:55:47.495Z,1027.75
2017-01-21T05:56:47.511Z,1027.75
2017-01-21T05:58:47.544Z,1027.72
2017-01-21T05:59:47.560Z,1027.69
2017-01-21T06:00:47.577Z,1027.69
2017-01-21T06:01:47.593Z,1027.7
2017-01-21T06:02:47.610Z,1027.66
2017-01-21T06:03:47.626Z,1027.68
2017-01-21T06:04:47.643Z,1027.65
2017-01-21T06:05:47.659Z,1027.64
2017-01-21T06:06:47.675Z,1027.64
2017-01-21T06:07:47.691Z,1027.62
2017-01-21T06:08:47.708Z,1027.6
2017-01-21T06:09:47.732Z,1027.63
2017-01-21T06:10:47.740Z,1027.69
2017-01-21T06:11:47.757Z,1027.67
2017-01-21T06:12:47.773Z,1027.72
2017-01-21T06:13:47.790Z,1027.73
2017-01-21T06:14:47.806Z,1027.77
2017-01-21T06:15:47.822Z,1027.73
2017-01-21T06:16:47.839Z,1027.72
2017-01-21T06:17:47.855Z,1027.71
2017-01-21T06:18:47.872Z,1027.71
2017-01-21T06:19:47.888Z,1027.68
2017-01-21T06:20:47.904Z,1027.68
2017-01-21T06:21:47.922Z,1027.7
2017-01-21T06:22:47.937Z,1027.72
2017-01-21T06:23:47.954Z,1027.74
2017-01-21T06:24:47.971Z,1027.75
2017-01-21T06:25:47.989Z,1027.8
2017-01-21T06:26:48.003Z,1027.78
2017-01-21T06:27:48.019Z,1027.79
2017-01-21T06:28:48.035Z,1027.76
2017-01-21T06:30:48.068Z,1027.76
2017-01-21T06:31:48.085Z,1027.74
2017-01-21T06:32:48.101Z,1027.78
2017-01-21T06:33:48.118Z,1027.79
2017-01-21T06:34:48.134Z,1027.84
2017-01-21T06:35:48.150Z,1027.79
2017-01-21T06:36:48.166Z,1027.77
2017-01-21T06:37:48.183Z,1027.82
2017-01-21T06:38:48.199Z,1027.78
2017-01-21T06:39:48.215Z,1027.79
2017-01-21T06:40:48.231Z,1027.79
2017-01-21T06:41:48.248Z,1027.86
2017-01-21T06:42:48.265Z,1027.88
2017-01-21T06:43:48.280Z,1027.85
2017-01-21T06:44:48.298Z,1027.83
2017-01-21T06:46:48.330Z,1027.79
2017-01-21T06:47:48.346Z,1027.78
2017-01-21T06:48:48.363Z,1027.81
2017-01-21T06:49:48.379Z,1027.78
2017-01-21T06:50:48.394Z,1027.79
2017-01-21T06:51:48.411Z,1027.82
2017-01-21T06:52:48.428Z,1027.83
2017-01-21T06:53:48.444Z,1027.85
2017-01-21T06:54:48.460Z,1027.79
2017-01-21T06:55:48.477Z,1027.82
2017-01-21T06:56:48.493Z,1027.83
2017-01-21T06:57:48.510Z,1027.8
2017-01-21T06:58:48.526Z,1027.83
2017-01-21T06:59:48.542Z,1027.78
2017-01-21T07:00:48.558Z,1027.79
2017-01-21T07:02:48.591Z,1027.79
2017-01-21T07:03:48.608Z,1027.79
2017-01-21T07:04:48.625Z,1027.81
2017-01-21T07:05:48.640Z,1027.83
2017-01-21T07:06:48.657Z,1027.79
2017-01-21T07:07:48.673Z,1027.83
2017-01-21T07:08:48.690Z,1027.82
2017-01-21T07:09:48.706Z,1027.82
2017-01-21T07:10:48.722Z,1027.87
2017-01-21T07:11:48.739Z,1027.87
2017-01-21T07:12:48.756Z,1027.84
2017-01-21T07:13:48.771Z,1027.9
2017-01-21T07:14:48.788Z,1027.86
2017-01-21T07:15:48.804Z,1027.85
2017-01-21T07:16:48.820Z,1027.85
2017-01-21T07:18:48.853Z,1027.87
2017-01-21T07:19:48.870Z,1027.85
2017-01-21T07:20:48.886Z,1027.85
2017-01-21T07:21:48.902Z,1027.85
2017-01-21T07:22:48.920Z,1027.86
2017-01-21T07:23:48.934Z,1027.94
2017-01-21T07:24:48.951Z,1027.94
2017-01-21T07:25:48.967Z,1027.97
2017-01-21T07:26:48.984Z,1027.96
2017-01-21T07:27:49.000Z,1027.94
2017-01-21T07:28:49.017Z,1027.91
2017-01-21T07:29:49.033Z,1027.88
2017-01-21T07:30:49.050Z,1027.92
2017-01-21T07:31:49.066Z,1027.89
2017-01-21T07:33:49.100Z,1027.88
2017-01-21T07:34:49.115Z,1027.93
2017-01-21T07:35:49.132Z,1027.91
2017-01-21T07:36:49.149Z,1027.91
2017-01-21T07:37:49.165Z,1027.93
2017-01-21T07:38:49.181Z,1027.93
2017-01-21T07:39:49.198Z,1027.94
2017-01-21T07:40:49.214Z,1027.98
2017-01-21T07:41:49.230Z,1027.99
2017-01-21T07:42:49.248Z,1028
2017-01-21T07:43:49.263Z,1027.99
2017-01-21T07:44:49.280Z,1027.96
2017-01-21T07:45:49.299Z,1027.97
2017-01-21T07:46:49.312Z,1027.94
2017-01-21T07:47:49.329Z,1027.9
2017-01-21T07:48:49.346Z,1027.92
2017-01-21T07:49:49.361Z,1027.91
2017-01-21T07:50:49.378Z,1027.9
2017-01-21T07:51:49.394Z,1027.95
2017-01-21T07:52:49.410Z,1027.98
2017-01-21T07:53:49.427Z,1027.99
2017-01-21T07:54:49.443Z,1028
2017-01-21T07:55:49.460Z,1028.01
2017-01-21T07:56:49.476Z,1027.96
2017-01-21T07:57:49.493Z,1027.98
2017-01-21T07:58:49.509Z,1028
2017-01-21T07:59:49.527Z,1027.99
2017-01-21T08:00:49.542Z,1027.99
2017-01-21T08:01:49.558Z,1028.03
2017-01-21T08:02:49.575Z,1028.02
2017-01-21T08:03:49.590Z,1027.99
2017-01-21T08:05:49.623Z,1028.01
2017-01-21T08:06:49.640Z,1028
2017-01-21T08:07:49.656Z,1028.1
2017-01-21T08:08:49.673Z,1028.1
2017-01-21T08:09:49.689Z,1028.11
2017-01-21T08:10:49.706Z,1028.07
2017-01-21T08:11:49.722Z,1028.09
2017-01-21T08:12:49.738Z,1028.07
2017-01-21T08:13:49.755Z,1028.08
2017-01-21T08:14:49.771Z,1028.11
2017-01-21T08:15:49.787Z,1028.08
2017-01-21T08:16:49.804Z,1028.08
2017-01-21T08:17:49.821Z,1028.1
2017-01-21T08:18:49.836Z,1028.08
2017-01-21T08:19:49.854Z,1028.08
2017-01-21T08:21:49.887Z,1028.04
2017-01-21T08:22:49.903Z,1028.04
2017-01-21T08:23:49.919Z,1028.09
2017-01-21T08:24:49.936Z,1028.15
2017-01-21T08:25:49.952Z,1028.19
2017-01-21T08:26:49.970Z,1028.16
2017-01-21T08:27:49.985Z,1028.21
2017-01-21T08:28:50.002Z,1028.14
2017-01-21T08:29:50.018Z,1028.14
2017-01-21T08:30:50.034Z,1028.15
2017-01-21T08:31:50.052Z,1028.12
2017-01-21T08:32:50.070Z,1028.13
2017-01-21T08:33:50.084Z,1028.13
2017-01-21T08:34:50.101Z,1028.16
2017-01-21T08:35:50.118Z,1028.11
2017-01-21T08:37:50.151Z,1028.13
2017-01-21T08:38:50.168Z,1028.14
2017-01-21T08:39:50.184Z,1028.11
2017-01-21T08:40:50.200Z,1028.12
2017-01-21T08:41:50.217Z,1028.14
2017-01-21T08:42:50.234Z,1028.14
2017-01-21T08:43:50.252Z,1028.21
2017-01-21T08:44:50.267Z,1028.18
2017-01-21T08:45:50.283Z,1028.2
2017-01-21T08:46:50.300Z,1028.19
2017-01-21T08:47:50.317Z,1028.2
2017-01-21T08:48:50.333Z,1028.26
2017-01-21T08:49:50.351Z,1028.17
2017-01-21T08:50:50.367Z,1028.23
2017-01-21T08:51:50.383Z,1028.25
2017-01-21T08:53:50.417Z,1028.23
2017-01-21T08:54:50.434Z,1028.21
2017-01-21T08:55:50.449Z,1028.25
2017-01-21T08:56:50.467Z,1028.22
2017-01-21T08:57:50.483Z,1028.25
2017-01-21T08:58:50.499Z,1028.29
2017-01-21T08:59:50.516Z,1028.3
2017-01-21T09:00:50.533Z,1028.35
2017-01-21T09:01:50.550Z,1028.3
2017-01-21T09:02:50.566Z,1028.31
2017-01-21T09:03:50.583Z,1028.35
2017-01-21T09:04:50.601Z,1028.3
2017-01-21T09:05:50.617Z,1028.3
2017-01-21T09:06:50.634Z,1028.3
2017-01-21T09:08:50.669Z,1028.32
2017-01-21T09:09:50.685Z,1028.32
2017-01-21T09:10:50.725Z,1028.33
2017-01-21T09:11:50.719Z,1028.33
2017-01-21T09:12:50.735Z,1028.38
2017-01-21T09:13:50.751Z,1028.36
2017-01-21T09:14:50.769Z,1028.39
2017-01-21T09:15:50.786Z,1028.37
2017-01-21T09:16:50.802Z,1028.3
2017-01-21T09:17:50.819Z,1028.26
2017-01-21T09:18:50.836Z,1028.37
2017-01-21T09:19:50.853Z,1028.37
2017-01-21T09:20:50.869Z,1028.36
2017-01-21T09:21:50.886Z,1028.34
2017-01-21T09:22:50.903Z,1028.4
2017-01-21T09:23:50.921Z,1028.37
2017-01-21T09:24:50.937Z,1028.4
2017-01-21T09:25:50.954Z,1028.38
2017-01-21T09:26:50.971Z,1028.36
2017-01-21T09:27:50.987Z,1028.38
2017-01-21T09:28:51.004Z,1028.39
2017-01-21T09:29:51.021Z,1028.36
2017-01-21T09:30:51.038Z,1028.39
2017-01-21T09:31:51.054Z,1028.42
2017-01-21T09:32:51.072Z,1028.43
2017-01-21T09:33:51.088Z,1028.45
2017-01-21T09:34:51.107Z,1028.48
2017-01-21T09:35:51.121Z,1028.49
2017-01-21T09:36:51.139Z,1028.51
2017-01-21T09:37:51.155Z,1028.48
2017-01-21T09:38:51.171Z,1028.48
2017-01-21T09:40:51.206Z,1028.43
2017-01-21T09:41:51.223Z,1028.42
2017-01-21T09:42:51.239Z,1028.42
2017-01-21T09:43:51.256Z,1028.43
2017-01-21T09:44:51.273Z,1028.4
2017-01-21T09:45:51.293Z,1028.41
2017-01-21T09:46:51.307Z,1028.34
2017-01-21T09:47:51.324Z,1028.4
2017-01-21T09:48:51.341Z,1028.35
2017-01-21T09:49:51.357Z,1028.35
2017-01-21T09:50:51.374Z,1028.36
2017-01-21T09:51:51.392Z,1028.37
2017-01-21T09:52:51.408Z,1028.35
2017-01-21T09:53:51.424Z,1028.34
2017-01-21T09:54:51.442Z,1028.35
2017-01-21T09:56:51.476Z,1028.35
2017-01-21T09:57:51.492Z,1028.33
2017-01-21T09:58:51.510Z,1028.37
2017-01-21T09:59:51.526Z,1028.32
2017-01-21T10:00:51.543Z,1028.32
2017-01-21T10:01:51.560Z,1028.33
2017-01-21T10:02:51.578Z,1028.31
2017-01-21T10:03:51.595Z,1028.32
2017-01-21T10:04:51.611Z,1028.35
2017-01-21T10:05:51.629Z,1028.34
2017-01-21T10:06:51.645Z,1028.33
2017-01-21T10:07:51.663Z,1028.32
2017-01-21T10:08:51.679Z,1028.32
2017-01-21T10:09:51.697Z,1028.3
2017-01-21T10:10:51.714Z,1028.28
2017-01-21T10:12:51.747Z,1028.28
2017-01-21T10:13:51.765Z,1028.31
2017-01-21T10:14:51.782Z,1028.28
2017-01-21T10:15:51.798Z,1028.31
2017-01-21T10:16:51.816Z,1028.3
2017-01-21T10:17:51.833Z,1028.27
2017-01-21T10:18:51.850Z,1028.3
2017-01-21T10:19:51.867Z,1028.29
2017-01-21T10:20:51.884Z,1028.25
2017-01-21T10:21:51.901Z,1028.24
2017-01-21T10:22:51.918Z,1028.24
2017-01-21T10:23:51.936Z,1028.24
2017-01-21T10:24:51.953Z,1028.24
2017-01-21T10:25:51.971Z,1028.23
2017-01-21T10:26:51.987Z,1028.25
2017-01-21T10:28:52.022Z,1028.24
2017-01-21T10:29:52.040Z,1028.25
2017-01-21T10:30:52.057Z,1028.26
2017-01-21T10:31:52.074Z,1028.17
2017-01-21T10:32:52.092Z,1028.21
2017-01-21T10:33:52.108Z,1028.17
2017-01-21T10:34:52.126Z,1028.16
2017-01-21T10:35:52.144Z,1028.1
2017-01-21T10:36:52.161Z,1028.1
2017-01-21T10:37:52.178Z,1028.08
2017-01-21T10:38:52.196Z,1028.12
2017-01-21T10:39:52.213Z,1028.12
2017-01-21T10:40:52.230Z,1028.13
2017-01-21T10:41:52.248Z,1028.16
2017-01-21T10:43:52.283Z,1028.18
2017-01-21T10:44:52.300Z,1028.13
2017-01-21T10:45:52.318Z,1028.13
2017-01-21T10:46:52.335Z,1028.09
2017-01-21T10:47:52.353Z,1028.07
2017-01-21T10:48:52.369Z,1028.04
2017-01-21T10:49:52.387Z,1028.01
2017-01-21T10:50:52.405Z,1028.03
2017-01-21T10:51:52.421Z,1028.07
2017-01-21T10:52:52.439Z,1028.04
2017-01-21T10:53:52.457Z,1028.07
2017-01-21T10:54:52.475Z,1028.07
2017-01-21T10:55:52.491Z,1028.08
2017-01-21T10:56:52.509Z,1028.04
2017-01-21T10:57:52.527Z,1028.03
2017-01-21T10:58:52.545Z,1027.98
2017-01-21T10:59:52.561Z,1027.98
2017-01-21T11:00:52.579Z,1027.92
2017-01-21T11:01:52.597Z,1027.94
2017-01-21T11:02:52.614Z,1027.96
2017-01-21T11:03:52.632Z,1027.91
2017-01-21T11:04:52.650Z,1027.97
2017-01-21T11:05:52.668Z,1027.95
2017-01-21T11:06:52.685Z,1028
2017-01-21T11:07:52.702Z,1027.97
2017-01-21T11:08:52.721Z,1027.94
2017-01-21T11:09:52.738Z,1027.95
2017-01-21T11:10:52.755Z,1027.94
2017-01-21T11:11:52.773Z,1027.91
2017-01-21T11:12:52.792Z,1027.87
2017-01-21T11:13:52.816Z,1027.86
2017-01-21T11:15:52.847Z,1027.85
2017-01-21T11:16:52.861Z,1027.8
2017-01-21T11:17:52.878Z,1027.83
2017-01-21T11:18:52.897Z,1027.78
2017-01-21T11:19:52.914Z,1027.77
2017-01-21T11:20:52.932Z,1027.81
2017-01-21T11:21:52.952Z,1027.77
2017-01-21T11:22:52.967Z,1027.78
2017-01-21T11:23:52.985Z,1027.77
2017-01-21T11:24:53.002Z,1027.76
2017-01-21T11:25:53.020Z,1027.78
2017-01-21T11:26:53.038Z,1027.79
2017-01-21T11:27:53.055Z,1027.72
2017-01-21T11:28:53.073Z,1027.72
2017-01-21T11:29:53.099Z,1027.75
2017-01-21T11:31:53.132Z,1027.72
2017-01-21T11:32:53.144Z,1027.73
2017-01-21T11:33:53.168Z,1027.72
2017-01-21T11:34:53.180Z,1027.7
2017-01-21T11:35:53.197Z,1027.73
2017-01-21T11:36:53.215Z,1027.72
2017-01-21T11:37:53.233Z,1027.74
2017-01-21T11:38:53.251Z,1027.77
2017-01-21T11:39:53.268Z,1027.78
2017-01-21T11:40:53.287Z,1027.81
2017-01-21T11:41:53.304Z,1027.8
2017-01-21T11:42:53.323Z,1027.79
2017-01-21T11:43:53.340Z,1027.76
2017-01-21T11:44:53.358Z,1027.74
2017-01-21T11:45:53.386Z,1027.74
2017-01-21T11:47:53.411Z,1027.78
2017-01-21T11:48:53.429Z,1027.77
2017-01-21T11:49:53.448Z,1027.7
2017-01-21T11:50:53.464Z,1027.73
2017-01-21T11:51:53.483Z,1027.71
2017-01-21T11:52:53.500Z,1027.68
2017-01-21T11:53:53.519Z,1027.69
2017-01-21T11:54:53.536Z,1027.66
2017-01-21T11:55:53.553Z,1027.67
2017-01-21T11:56:53.573Z,1027.65
2017-01-21T11:57:53.589Z,1027.65
2017-01-21T11:58:53.607Z,1027.71
2017-01-21T11:59:53.644Z,1027.67
2017-01-21T12:00:53.643Z,1027.69
2017-01-21T12:01:53.660Z,1027.71
2017-01-21T12:03:53.716Z,1027.7
2017-01-21T12:04:53.714Z,1027.68
2017-01-21T12:05:53.731Z,1027.7
2017-01-21T12:06:53.749Z,1027.69
2017-01-21T12:07:53.767Z,1027.72
2017-01-21T12:08:53.785Z,1027.65
2017-01-21T12:09:53.803Z,1027.63
2017-01-21T12:10:53.821Z,1027.65
2017-01-21T12:11:53.839Z,1027.69
2017-01-21T12:12:53.856Z,1027.62
2017-01-21T12:13:53.874Z,1027.6
2017-01-21T12:14:53.892Z,1027.64
2017-01-21T12:15:53.923Z,1027.62
2017-01-21T12:16:53.928Z,1027.62
2017-01-21T12:18:53.965Z,1027.66
2017-01-21T12:19:53.982Z,1027.64
2017-01-21T12:20:54.000Z,1027.62
2017-01-21T12:21:54.018Z,1027.64
2017-01-21T12:22:54.036Z,1027.62
2017-01-21T12:23:54.053Z,1027.63
2017-01-21T12:24:54.072Z,1027.65
2017-01-21T12:25:54.090Z,1027.62
2017-01-21T12:26:54.107Z,1027.61
2017-01-21T12:27:54.126Z,1027.61
2017-01-21T12:28:54.143Z,1027.6
2017-01-21T12:29:54.161Z,1027.61
2017-01-21T12:30:54.178Z,1027.61
2017-01-21T12:31:54.198Z,1027.58
2017-01-21T12:32:54.215Z,1027.55
2017-01-21T12:33:54.233Z,1027.57
2017-01-21T12:34:54.250Z,1027.55
2017-01-21T12:35:54.268Z,1027.58
2017-01-21T12:36:54.286Z,1027.55
2017-01-21T12:37:54.303Z,1027.51
2017-01-21T12:38:54.321Z,1027.53
2017-01-21T12:39:54.339Z,1027.51
2017-01-21T12:40:54.357Z,1027.49
2017-01-21T12:41:54.375Z,1027.48
2017-01-21T12:42:54.393Z,1027.48
2017-01-21T12:43:54.411Z,1027.48
2017-01-21T12:44:54.429Z,1027.49
2017-01-21T12:45:54.446Z,1027.45
2017-01-21T12:46:54.467Z,1027.49
2017-01-21T12:47:54.483Z,1027.46
2017-01-21T12:48:54.500Z,1027.43